KAQW/AQW METAR and TAF weather

Enter ICAO airport designator
Station Type Date Time Source
KAQW METAR 2018/12/10 16:52 UTC NOAA

KAQW 101652Z AUTO 30008KT 10SM OVC033 M01/M08 A3013 RMK AO2 SLP211 T10111083


Station Type Date Time Source
KAQW Decoded METAR 2018/12/10 16:52 UTC NOAA

N ADAMS HARRIMAN-AND-WEST, MA, United States (KAQW) 42-42N 073-10W 201M
Dec 10, 2018 - 11:52 AM EST / 2018.12.10 1652 UTC
Wind: from the WNW (300 degrees) at 9 MPH (8 KT):0
Visibility: 10 mile(s):0
Sky conditions: overcast
Temperature: 30.0 F (-1.1 C)
Windchill: 21 F (-6 C):1
Dew Point: 17.1 F (-8.3 C)
Relative Humidity: 58%
Pressure (altimeter): 30.13 in. Hg (1020 hPa)
ob: KAQW 101652Z AUTO 30008KT 10SM OVC033 M01/M08 A3013 RMK AO2 SLP211 T10111083
cycle: 17

Station Type Date Time Source
KAQW TAF UTC NOAA

Error!


Example: see airport list